createdAt,value
2022-11-17T00:00:23.948Z,9.89
2022-11-17T00:01:23.945Z,9.89
2022-11-17T00:02:24.015Z,9.89
2022-11-17T00:03:23.928Z,9.89
2022-11-17T00:04:23.908Z,9.91
2022-11-17T00:05:23.899Z,9.91
2022-11-17T00:06:23.885Z,9.91
2022-11-17T00:07:23.920Z,9.91
2022-11-17T00:08:23.881Z,9.91
2022-11-17T00:09:23.870Z,9.91
2022-11-17T00:10:23.842Z,9.93
2022-11-17T00:11:23.843Z,9.95
2022-11-17T00:12:26.148Z,9.95
2022-11-17T00:13:23.810Z,9.93
2022-11-17T00:14:23.799Z,9.93
2022-11-17T00:15:23.790Z,9.93
2022-11-17T00:16:23.770Z,9.93
2022-11-17T00:17:23.769Z,9.92
2022-11-17T00:18:23.769Z,9.91
2022-11-17T00:19:23.750Z,9.89
2022-11-17T00:20:24.681Z,9.91
2022-11-17T00:21:23.994Z,9.89
2022-11-17T00:22:23.711Z,9.89
2022-11-17T00:23:23.710Z,9.89
2022-11-17T00:24:23.700Z,9.86
2022-11-17T00:25:23.691Z,9.88
2022-11-17T00:26:23.671Z,9.89
2022-11-17T00:27:23.664Z,9.89
2022-11-17T00:28:23.652Z,9.89
2022-11-17T00:29:23.642Z,9.91
2022-11-17T00:30:23.643Z,9.91
2022-11-17T00:31:23.621Z,9.91
2022-11-17T00:32:23.603Z,9.91
2022-11-17T00:33:23.593Z,9.89
2022-11-17T00:34:23.582Z,9.91
2022-11-17T00:35:23.572Z,9.93
2022-11-17T00:36:23.564Z,9.93
2022-11-17T00:37:23.556Z,9.95
2022-11-17T00:38:23.554Z,9.95
2022-11-17T00:39:23.534Z,9.96
2022-11-17T00:40:23.533Z,9.99
2022-11-17T00:41:23.513Z,9.98
2022-11-17T00:42:23.513Z,9.99
2022-11-17T00:43:23.492Z,9.98
2022-11-17T00:44:23.485Z,9.99
2022-11-17T00:45:23.485Z,10.01
2022-11-17T00:46:23.454Z,10.02
2022-11-17T00:47:23.446Z,10.02
2022-11-17T00:48:23.445Z,10.01
2022-11-17T00:49:23.427Z,10.04
2022-11-17T00:50:23.434Z,10.02
2022-11-17T00:51:23.395Z,10.04
2022-11-17T00:52:23.386Z,10.06
2022-11-17T00:53:23.383Z,10.07
2022-11-17T00:54:23.366Z,10.06
2022-11-17T00:55:23.425Z,10.07
2022-11-17T00:56:23.357Z,10.09
2022-11-17T00:57:23.336Z,10.07
2022-11-17T00:58:23.324Z,10.10
2022-11-17T00:59:23.336Z,10.11
2022-11-17T01:00:23.316Z,10.13
2022-11-17T01:01:23.349Z,10.14
2022-11-17T01:02:23.278Z,10.16
2022-11-17T01:03:23.277Z,10.16
2022-11-17T01:04:23.258Z,10.17
2022-11-17T01:05:23.247Z,10.17
2022-11-17T01:06:23.257Z,10.18
2022-11-17T01:07:23.276Z,10.20
2022-11-17T01:08:23.217Z,10.22
2022-11-17T01:09:23.231Z,10.20
2022-11-17T01:10:23.197Z,10.24
2022-11-17T01:11:23.198Z,10.24
2022-11-17T01:12:23.179Z,10.25
2022-11-17T01:13:23.167Z,10.25
2022-11-17T01:14:23.149Z,10.24
2022-11-17T01:15:23.140Z,10.25
2022-11-17T01:16:23.150Z,10.25
2022-11-17T01:17:23.138Z,10.26
2022-11-17T01:18:23.109Z,10.26
2022-11-17T01:19:23.113Z,10.28
2022-11-17T01:20:23.089Z,10.28
2022-11-17T01:21:23.079Z,10.29
2022-11-17T01:22:23.081Z,10.29
2022-11-17T01:23:23.059Z,10.29
2022-11-17T01:24:23.040Z,10.29
2022-11-17T01:25:23.039Z,10.29
2022-11-17T01:26:23.044Z,10.31
2022-11-17T01:27:23.026Z,10.31
2022-11-17T01:28:23.001Z,10.32
2022-11-17T01:29:23.000Z,10.34
2022-11-17T01:30:22.980Z,10.32
2022-11-17T01:31:22.990Z,10.32
2022-11-17T01:32:22.952Z,10.34
2022-11-17T01:33:22.952Z,10.34
2022-11-17T01:34:22.941Z,10.34
2022-11-17T01:35:22.932Z,10.35
2022-11-17T01:36:22.914Z,10.35
2022-11-17T01:37:22.924Z,10.35
2022-11-17T01:38:23.010Z,10.35
2022-11-17T01:39:22.883Z,10.35
2022-11-17T01:40:22.872Z,10.35
2022-11-17T01:41:22.871Z,10.36
2022-11-17T01:42:22.851Z,10.35
2022-11-17T01:43:22.852Z,10.36
2022-11-17T01:44:22.842Z,10.36
2022-11-17T01:45:22.821Z,10.36
2022-11-17T01:46:22.808Z,10.36
2022-11-17T01:47:22.806Z,10.38
2022-11-17T01:48:22.783Z,10.38
2022-11-17T01:49:22.794Z,10.36
2022-11-17T01:50:22.762Z,10.35
2022-11-17T01:51:22.764Z,10.35
2022-11-17T01:52:22.744Z,10.36
2022-11-17T01:53:22.735Z,10.36
2022-11-17T01:54:22.735Z,10.36
2022-11-17T01:55:22.716Z,10.35
2022-11-17T01:56:22.694Z,10.36
2022-11-17T01:57:22.692Z,10.35
2022-11-17T01:58:22.692Z,10.35
2022-11-17T01:59:22.673Z,10.36
2022-11-17T02:00:22.675Z,10.36
2022-11-17T02:01:22.709Z,10.35
2022-11-17T02:02:22.634Z,10.35
2022-11-17T02:03:22.625Z,10.36
2022-11-17T02:04:22.629Z,10.36
2022-11-17T02:05:22.626Z,10.38
2022-11-17T02:06:22.586Z,10.36
2022-11-17T02:07:22.613Z,10.38
2022-11-17T02:08:22.573Z,10.36
2022-11-17T02:09:22.584Z,10.38
2022-11-17T02:10:22.555Z,10.38
2022-11-17T02:11:22.556Z,10.38
2022-11-17T02:12:22.531Z,10.39
2022-11-17T02:13:22.518Z,10.39
2022-11-17T02:14:22.505Z,10.39
2022-11-17T02:15:22.521Z,10.38
2022-11-17T02:16:22.477Z,10.36
2022-11-17T02:17:22.477Z,10.36
2022-11-17T02:18:22.457Z,10.36
2022-11-17T02:19:22.457Z,10.34
2022-11-17T02:20:22.441Z,10.32
2022-11-17T02:21:22.448Z,10.32
2022-11-17T02:22:22.414Z,10.29
2022-11-17T02:23:22.408Z,10.26
2022-11-17T02:24:22.389Z,10.26
2022-11-17T02:25:26.842Z,10.25
2022-11-17T02:26:22.384Z,10.24
2022-11-17T02:27:22.368Z,10.22
2022-11-17T02:28:22.367Z,10.20
2022-11-17T02:29:22.348Z,10.18
2022-11-17T02:30:22.451Z,10.17
2022-11-17T02:31:22.328Z,10.14
2022-11-17T02:32:22.329Z,10.10
2022-11-17T02:33:22.308Z,10.09
2022-11-17T02:34:22.289Z,10.04
2022-11-17T02:35:22.279Z,10.02
2022-11-17T02:36:22.259Z,9.99
2022-11-17T02:37:22.261Z,9.98
2022-11-17T02:38:22.269Z,9.95
2022-11-17T02:39:22.239Z,9.93
2022-11-17T02:40:22.220Z,9.91
2022-11-17T02:41:22.218Z,9.91
2022-11-17T02:42:22.223Z,9.88
2022-11-17T02:43:22.190Z,9.88
2022-11-17T02:44:22.190Z,9.85
2022-11-17T02:45:22.300Z,9.85
2022-11-17T02:46:22.168Z,9.81
2022-11-17T02:47:22.160Z,9.81
2022-11-17T02:48:22.151Z,9.78
2022-11-17T02:49:22.148Z,9.78
2022-11-17T02:50:27.855Z,9.77
2022-11-17T02:51:23.121Z,9.77
2022-11-17T02:52:22.101Z,9.77
2022-11-17T02:53:22.221Z,9.74
2022-11-17T02:54:22.081Z,9.73
2022-11-17T02:55:22.071Z,9.71
2022-11-17T02:56:22.069Z,9.70
2022-11-17T02:57:22.042Z,9.70
2022-11-17T02:58:22.023Z,9.68
2022-11-17T02:59:22.030Z,9.68
2022-11-17T03:00:22.012Z,9.71
2022-11-17T03:01:22.112Z,9.68
2022-11-17T03:02:22.011Z,9.70
2022-11-17T03:03:21.991Z,9.68
2022-11-17T03:04:21.963Z,9.68
2022-11-17T03:05:21.976Z,9.70
2022-11-17T03:06:21.933Z,9.68
2022-11-17T03:07:21.980Z,9.71
2022-11-17T03:08:21.933Z,9.73
2022-11-17T03:09:21.930Z,9.74
2022-11-17T03:10:21.912Z,9.74
2022-11-17T03:11:21.900Z,9.75
2022-11-17T03:12:21.875Z,9.77
2022-11-17T03:13:21.895Z,9.81
2022-11-17T03:14:21.900Z,9.85
2022-11-17T03:15:21.852Z,9.86
2022-11-17T03:16:21.854Z,9.89
2022-11-17T03:17:21.813Z,9.92
2022-11-17T03:18:21.823Z,9.98
2022-11-17T03:19:21.826Z,10.02
2022-11-17T03:20:21.794Z,10.06
2022-11-17T03:21:21.787Z,10.09
2022-11-17T03:22:21.801Z,10.10
2022-11-17T03:23:21.765Z,10.13
2022-11-17T03:24:21.753Z,10.16
2022-11-17T03:25:21.746Z,10.16
2022-11-17T03:26:21.758Z,10.17
2022-11-17T03:27:21.716Z,10.17
2022-11-17T03:28:21.716Z,10.20
2022-11-17T03:29:21.705Z,10.20
2022-11-17T03:30:21.727Z,10.24
2022-11-17T03:31:21.675Z,10.24
2022-11-17T03:32:21.665Z,10.25
2022-11-17T03:33:21.659Z,10.25
2022-11-17T03:34:21.645Z,10.26
2022-11-17T03:35:21.646Z,10.28
2022-11-17T03:36:21.636Z,10.29
2022-11-17T03:37:21.609Z,10.29
2022-11-17T03:38:21.710Z,10.29
2022-11-17T03:39:21.587Z,10.29
2022-11-17T03:40:21.597Z,10.29
2022-11-17T03:41:21.567Z,10.29
2022-11-17T03:42:21.567Z,10.29
2022-11-17T03:43:21.556Z,10.31
2022-11-17T03:44:21.538Z,10.31
2022-11-17T03:45:21.518Z,10.29
2022-11-17T03:46:21.518Z,10.31
2022-11-17T03:47:21.537Z,10.32
2022-11-17T03:48:21.494Z,10.31
2022-11-17T03:49:21.517Z,10.32
2022-11-17T03:50:21.480Z,10.32
2022-11-17T03:51:21.456Z,10.32
2022-11-17T03:52:21.448Z,10.32
2022-11-17T03:53:21.479Z,10.32
2022-11-17T03:54:21.440Z,10.32
2022-11-17T03:55:21.426Z,10.32
2022-11-17T03:56:21.418Z,10.32
2022-11-17T03:57:21.411Z,10.32
2022-11-17T03:58:21.390Z,10.34
2022-11-17T03:59:21.379Z,10.35
2022-11-17T04:00:21.378Z,10.34
2022-11-17T04:01:21.395Z,10.34
2022-11-17T04:02:21.370Z,10.36
2022-11-17T04:03:21.331Z,10.36
2022-11-17T04:04:21.329Z,10.36
2022-11-17T04:05:21.333Z,10.35
2022-11-17T04:06:21.301Z,10.35
2022-11-17T04:07:21.371Z,10.35
2022-11-17T04:08:21.290Z,10.35
2022-11-17T04:09:24.335Z,10.35
2022-11-17T04:10:21.280Z,10.35
2022-11-17T04:11:21.240Z,10.36
2022-11-17T04:12:21.241Z,10.35
2022-11-17T04:13:21.229Z,10.35
2022-11-17T04:14:21.230Z,10.35
2022-11-17T04:15:21.201Z,10.35
2022-11-17T04:16:21.213Z,10.35
2022-11-17T04:17:21.173Z,10.36
2022-11-17T04:18:21.189Z,10.36
2022-11-17T04:19:21.172Z,10.38
2022-11-17T04:20:21.142Z,10.39
2022-11-17T04:21:21.154Z,10.42
2022-11-17T04:22:21.143Z,10.39
2022-11-17T04:23:21.128Z,10.42
2022-11-17T04:24:21.123Z,10.42
2022-11-17T04:25:21.083Z,10.43
2022-11-17T04:26:21.095Z,10.43
2022-11-17T04:27:21.103Z,10.44
2022-11-17T04:28:21.064Z,10.44
2022-11-17T04:29:21.065Z,10.46
2022-11-17T04:30:21.044Z,10.46
2022-11-17T04:31:21.066Z,10.46
2022-11-17T04:32:21.014Z,10.47
2022-11-17T04:33:21.019Z,10.49
2022-11-17T04:34:20.993Z,10.49
2022-11-17T04:35:21.003Z,10.51
2022-11-17T04:36:21.029Z,10.51
2022-11-17T04:37:20.958Z,10.51
2022-11-17T04:38:20.952Z,10.51
2022-11-17T04:39:20.966Z,10.51
2022-11-17T04:40:20.933Z,10.52
2022-11-17T04:41:20.932Z,10.54
2022-11-17T04:42:20.925Z,10.55
2022-11-17T04:43:20.893Z,10.55
2022-11-17T04:44:20.906Z,10.55
2022-11-17T04:45:20.883Z,10.57
2022-11-17T04:46:20.867Z,10.57
2022-11-17T04:47:20.867Z,10.57
2022-11-17T04:48:20.846Z,10.58
2022-11-17T04:49:20.828Z,10.58
2022-11-17T04:50:20.828Z,10.57
2022-11-17T04:51:20.810Z,10.58
2022-11-17T04:52:24.230Z,10.62
2022-11-17T04:53:21.805Z,10.60
2022-11-17T04:54:20.778Z,10.60
2022-11-17T04:55:20.767Z,10.62
2022-11-17T04:56:20.777Z,10.62
2022-11-17T04:57:20.773Z,10.63
2022-11-17T04:58:20.758Z,10.63
2022-11-17T04:59:20.747Z,10.65
2022-11-17T05:00:20.730Z,10.65
2022-11-17T05:01:20.701Z,10.63
2022-11-17T05:02:20.739Z,10.65
2022-11-17T05:03:20.697Z,10.65
2022-11-17T05:04:20.708Z,10.65
2022-11-17T05:05:21.109Z,10.65
2022-11-17T05:06:20.664Z,10.68
2022-11-17T05:07:20.704Z,10.66
2022-11-17T05:08:20.649Z,10.66
2022-11-17T05:09:21.411Z,10.68
2022-11-17T05:10:21.338Z,10.66
2022-11-17T05:11:20.664Z,10.66
2022-11-17T05:12:20.757Z,10.63
2022-11-17T05:13:20.622Z,10.63
2022-11-17T05:14:20.580Z,10.63
2022-11-17T05:15:20.641Z,10.63
2022-11-17T05:16:20.603Z,10.60
2022-11-17T05:17:21.261Z,10.62
2022-11-17T05:18:20.592Z,10.62
2022-11-17T05:19:20.604Z,10.63
2022-11-17T05:20:20.541Z,10.63
2022-11-17T05:21:21.221Z,10.63
2022-11-17T05:22:20.513Z,10.62
2022-11-17T05:23:20.672Z,10.63
2022-11-17T05:24:20.544Z,10.62
2022-11-17T05:25:21.173Z,10.62
2022-11-17T05:26:20.464Z,10.60
2022-11-17T05:27:21.103Z,10.58
2022-11-17T05:28:20.444Z,10.57
2022-11-17T05:29:20.473Z,10.54
2022-11-17T05:30:20.445Z,10.52
2022-11-17T05:31:20.396Z,10.52
2022-11-17T05:32:20.488Z,10.54
2022-11-17T05:33:20.381Z,10.54
2022-11-17T05:34:20.376Z,10.54
2022-11-17T05:35:20.384Z,10.52
2022-11-17T05:36:20.335Z,10.55
2022-11-17T05:37:20.314Z,10.54
2022-11-17T05:38:20.325Z,10.55
2022-11-17T05:39:20.315Z,10.55
2022-11-17T05:40:20.315Z,10.55
2022-11-17T05:41:20.285Z,10.57
2022-11-17T05:42:20.308Z,10.57
2022-11-17T05:43:20.267Z,10.57
2022-11-17T05:44:20.256Z,10.58
2022-11-17T05:45:20.246Z,10.60
2022-11-17T05:46:20.945Z,10.60
2022-11-17T05:47:20.267Z,10.62
2022-11-17T05:48:20.209Z,10.62
2022-11-17T05:49:20.218Z,10.62
2022-11-17T05:50:20.191Z,10.62
2022-11-17T05:51:20.186Z,10.62
2022-11-17T05:52:20.188Z,10.63
2022-11-17T05:53:20.186Z,10.63
2022-11-17T05:54:20.148Z,10.63
2022-11-17T05:55:20.132Z,10.65
2022-11-17T05:56:20.146Z,10.65
2022-11-17T05:57:20.118Z,10.65
2022-11-17T05:58:20.113Z,10.66
2022-11-17T05:59:23.421Z,10.66
2022-11-17T06:00:21.117Z,10.65
2022-11-17T06:01:20.058Z,10.65
2022-11-17T06:02:20.067Z,10.63
2022-11-17T06:03:20.046Z,10.60
2022-11-17T06:04:20.096Z,10.60
2022-11-17T06:05:20.667Z,10.60
2022-11-17T06:06:20.047Z,10.60
2022-11-17T06:07:20.117Z,10.60
2022-11-17T06:08:20.077Z,10.60
2022-11-17T06:09:20.001Z,10.58
2022-11-17T06:10:20.029Z,10.60
2022-11-17T06:11:19.960Z,10.58
2022-11-17T06:12:19.976Z,10.62
2022-11-17T06:13:19.980Z,10.62
2022-11-17T06:14:19.971Z,10.62
2022-11-17T06:15:19.951Z,10.65
2022-11-17T06:16:19.909Z,10.63
2022-11-17T06:17:22.544Z,10.66
2022-11-17T06:18:19.892Z,10.66
2022-11-17T06:19:19.878Z,10.66
2022-11-17T06:20:19.917Z,10.66
2022-11-17T06:21:19.849Z,10.68
2022-11-17T06:22:20.003Z,10.69
2022-11-17T06:23:19.826Z,10.69
2022-11-17T06:24:19.839Z,10.70
2022-11-17T06:25:19.822Z,10.70
2022-11-17T06:26:19.805Z,10.72
2022-11-17T06:27:19.843Z,10.72
2022-11-17T06:28:19.794Z,10.72
2022-11-17T06:29:19.784Z,10.70
2022-11-17T06:30:20.062Z,10.70
2022-11-17T06:31:19.744Z,10.69
2022-11-17T06:32:19.752Z,10.69
2022-11-17T06:33:19.752Z,10.68
2022-11-17T06:34:19.725Z,10.68
2022-11-17T06:35:19.714Z,10.68
2022-11-17T06:36:19.805Z,10.66
2022-11-17T06:37:19.704Z,10.65
2022-11-17T06:38:19.724Z,10.63
2022-11-17T06:39:19.714Z,10.58
2022-11-17T06:40:19.649Z,10.57
2022-11-17T06:41:19.636Z,10.55
2022-11-17T06:42:19.645Z,10.55
2022-11-17T06:43:20.678Z,10.54
2022-11-17T06:44:19.603Z,10.54
2022-11-17T06:45:19.587Z,10.55
2022-11-17T06:46:19.605Z,10.54
2022-11-17T06:47:19.568Z,10.54
2022-11-17T06:48:19.587Z,10.52
2022-11-17T06:49:19.727Z,10.52
2022-11-17T06:50:19.550Z,10.54
2022-11-17T06:51:19.527Z,10.54
2022-11-17T06:52:19.508Z,10.55
2022-11-17T06:53:19.497Z,10.57
2022-11-17T06:54:19.524Z,10.58
2022-11-17T06:55:19.469Z,10.62
2022-11-17T06:56:19.467Z,10.68
2022-11-17T06:57:19.467Z,10.70
2022-11-17T06:58:19.460Z,10.70
2022-11-17T06:59:19.429Z,10.72
2022-11-17T07:00:19.439Z,10.72
2022-11-17T07:01:19.512Z,10.72
2022-11-17T07:02:19.409Z,10.72
2022-11-17T07:03:19.392Z,10.69
2022-11-17T07:04:19.391Z,10.72
2022-11-17T07:05:19.388Z,10.72
2022-11-17T07:06:19.392Z,10.70
2022-11-17T07:07:19.364Z,10.73
2022-11-17T07:08:19.351Z,10.73
2022-11-17T07:09:19.324Z,10.75
2022-11-17T07:10:20.041Z,10.73
2022-11-17T07:11:19.381Z,10.75
2022-11-17T07:12:19.332Z,10.78
2022-11-17T07:13:19.278Z,10.78
2022-11-17T07:14:19.289Z,10.78
2022-11-17T07:15:19.262Z,10.78
2022-11-17T07:16:23.544Z,10.76
2022-11-17T07:17:19.231Z,10.78
2022-11-17T07:18:19.241Z,10.78
2022-11-17T07:19:19.242Z,10.76
2022-11-17T07:20:19.212Z,10.75
2022-11-17T07:21:19.205Z,10.75
2022-11-17T07:22:19.191Z,10.75
2022-11-17T07:23:19.195Z,10.78
2022-11-17T07:24:19.162Z,10.81
2022-11-17T07:25:22.455Z,10.84
2022-11-17T07:26:19.134Z,10.84
2022-11-17T07:27:19.133Z,10.87
2022-11-17T07:28:19.124Z,10.90
2022-11-17T07:29:19.122Z,10.93
2022-11-17T07:30:19.094Z,10.95
2022-11-17T07:31:19.090Z,11.01
2022-11-17T07:32:19.083Z,11.02
2022-11-17T07:33:19.082Z,11.06
2022-11-17T07:34:19.044Z,11.09
2022-11-17T07:35:19.063Z,11.13
2022-11-17T07:36:19.044Z,11.17
2022-11-17T07:37:19.034Z,11.20
2022-11-17T07:38:19.004Z,11.21
2022-11-17T07:39:21.731Z,11.26
2022-11-17T07:40:18.994Z,11.27
2022-11-17T07:41:19.015Z,11.30
2022-11-17T07:42:18.985Z,11.33
2022-11-17T07:43:18.967Z,11.31
2022-11-17T07:44:18.936Z,11.33
2022-11-17T07:45:18.943Z,11.35
2022-11-17T07:46:18.955Z,11.35
2022-11-17T07:47:18.927Z,11.36
2022-11-17T07:48:18.904Z,11.36
2022-11-17T07:49:18.900Z,11.38
2022-11-17T07:50:18.898Z,11.38
2022-11-17T07:51:18.888Z,11.38
2022-11-17T07:52:18.866Z,11.41
2022-11-17T07:53:18.871Z,11.44
2022-11-17T07:54:18.844Z,11.48
2022-11-17T07:55:18.837Z,11.54
2022-11-17T07:56:18.807Z,11.59
2022-11-17T07:57:18.808Z,11.63
2022-11-17T07:58:18.797Z,11.66
2022-11-17T07:59:21.498Z,11.67
2022-11-17T08:00:18.777Z,11.69
2022-11-17T08:01:18.789Z,11.70
2022-11-17T08:02:18.763Z,11.72
2022-11-17T08:03:18.831Z,11.75
2022-11-17T08:04:18.748Z,11.78
2022-11-17T08:05:19.447Z,11.81
2022-11-17T08:06:18.717Z,11.84
2022-11-17T08:07:19.730Z,11.87
2022-11-17T08:08:18.707Z,11.93
2022-11-17T08:09:18.688Z,11.94
2022-11-17T08:10:18.817Z,11.98
2022-11-17T08:11:18.680Z,11.98
2022-11-17T08:12:18.648Z,12.01
2022-11-17T08:13:18.653Z,12.01
2022-11-17T08:14:18.648Z,12.04
2022-11-17T08:15:18.619Z,12.08
2022-11-17T08:16:18.610Z,12.15
2022-11-17T08:17:18.590Z,12.18
2022-11-17T08:18:18.582Z,12.22
2022-11-17T08:19:18.563Z,12.26
2022-11-17T08:20:18.550Z,12.30
2022-11-17T08:21:18.580Z,12.33
2022-11-17T08:22:18.521Z,12.34
2022-11-17T08:23:18.540Z,12.37
2022-11-17T08:24:18.512Z,12.38
2022-11-17T08:25:18.499Z,12.41
2022-11-17T08:26:18.505Z,12.44
2022-11-17T08:27:18.491Z,12.46
2022-11-17T08:28:18.468Z,12.51
2022-11-17T08:29:18.452Z,12.52
2022-11-17T08:30:18.446Z,12.54
2022-11-17T08:31:18.433Z,12.56
2022-11-17T08:32:18.438Z,12.59
2022-11-17T08:33:18.413Z,12.59
2022-11-17T08:34:18.412Z,12.62
2022-11-17T08:35:18.392Z,12.67
2022-11-17T08:36:18.372Z,12.69
2022-11-17T08:37:18.402Z,12.73
2022-11-17T08:38:18.377Z,12.76
2022-11-17T08:39:18.352Z,12.80
2022-11-17T08:40:18.385Z,12.81
2022-11-17T08:41:19.061Z,12.85
2022-11-17T08:42:18.335Z,12.88
2022-11-17T08:43:19.336Z,12.91
2022-11-17T08:44:18.313Z,12.92
2022-11-17T08:45:19.385Z,12.92
2022-11-17T08:46:18.284Z,12.94
2022-11-17T08:47:19.305Z,12.94
2022-11-17T08:48:18.358Z,12.95
2022-11-17T08:49:18.345Z,12.96
2022-11-17T08:50:18.319Z,12.98
2022-11-17T08:51:18.435Z,12.98
2022-11-17T08:52:18.218Z,12.98
2022-11-17T08:53:18.377Z,12.99
2022-11-17T08:54:18.233Z,12.99
2022-11-17T08:55:18.930Z,13.01
2022-11-17T08:56:18.225Z,13.03
2022-11-17T08:57:18.902Z,13.06
2022-11-17T08:58:18.156Z,13.07
2022-11-17T08:59:18.177Z,13.10
2022-11-17T09:00:18.117Z,13.12
2022-11-17T09:01:18.188Z,13.12
2022-11-17T09:02:18.120Z,13.12
2022-11-17T09:03:18.087Z,13.14
2022-11-17T09:04:18.089Z,13.17
2022-11-17T09:05:18.078Z,13.21
2022-11-17T09:06:18.075Z,13.22
2022-11-17T09:07:18.119Z,13.24
2022-11-17T09:09:19.043Z,13.32
2022-11-17T09:10:18.017Z,13.32
2022-11-17T09:11:18.070Z,13.35
2022-11-17T09:12:17.996Z,13.41
2022-11-17T09:13:18.847Z,13.46
2022-11-17T09:14:17.977Z,13.48
2022-11-17T09:15:17.988Z,13.51
2022-11-17T09:16:17.996Z,13.51
2022-11-17T09:17:17.966Z,13.55
2022-11-17T09:18:19.886Z,13.57
2022-11-17T09:19:17.940Z,13.55
2022-11-17T09:20:17.902Z,13.57
2022-11-17T09:21:17.927Z,13.62
2022-11-17T09:22:17.889Z,13.66
2022-11-17T09:23:17.880Z,13.71
2022-11-17T09:24:17.861Z,13.72
2022-11-17T09:25:17.848Z,13.75
2022-11-17T09:26:17.841Z,13.80
2022-11-17T09:27:17.849Z,13.87
2022-11-17T09:28:17.811Z,13.88
2022-11-17T09:29:17.822Z,13.90
2022-11-17T09:30:17.792Z,13.90
2022-11-17T09:31:17.851Z,13.94
2022-11-17T09:32:17.769Z,13.98
2022-11-17T09:33:17.762Z,14.04
2022-11-17T09:34:17.877Z,14.01
2022-11-17T09:35:17.752Z,14.04
2022-11-17T09:36:17.765Z,14.04
2022-11-17T09:37:17.718Z,14.02
2022-11-17T09:38:17.712Z,14.06
2022-11-17T09:39:17.752Z,14.08
2022-11-17T09:40:17.703Z,14.09
2022-11-17T09:41:17.696Z,14.16
2022-11-17T09:42:17.693Z,14.21
2022-11-17T09:43:17.685Z,14.21
2022-11-17T09:44:17.660Z,14.20
2022-11-17T09:45:17.632Z,14.17
2022-11-17T09:46:17.634Z,14.13
2022-11-17T09:47:17.605Z,14.12
2022-11-17T09:49:18.586Z,14.19
2022-11-17T09:50:17.587Z,14.21
2022-11-17T09:51:17.586Z,14.24
2022-11-17T09:52:17.576Z,14.23
2022-11-17T09:53:17.557Z,14.23
2022-11-17T09:54:17.535Z,14.27
2022-11-17T09:55:17.537Z,14.29
2022-11-17T09:56:17.536Z,14.29
2022-11-17T09:57:17.548Z,14.29
2022-11-17T09:58:17.486Z,14.29
2022-11-17T09:59:17.492Z,14.29
2022-11-17T10:00:17.479Z,14.30
2022-11-17T10:01:17.482Z,14.31
2022-11-17T10:02:17.546Z,14.31
2022-11-17T10:03:17.450Z,14.30
2022-11-17T10:04:17.421Z,14.27
2022-11-17T10:05:17.429Z,14.31
2022-11-17T10:06:17.417Z,14.36
2022-11-17T10:07:17.474Z,14.39
2022-11-17T10:08:17.410Z,14.41
2022-11-17T10:09:22.509Z,14.42
2022-11-17T10:10:18.358Z,14.41
2022-11-17T10:11:17.390Z,14.44
2022-11-17T10:12:17.348Z,14.54
2022-11-17T10:13:17.358Z,14.60
2022-11-17T10:14:17.341Z,14.61
2022-11-17T10:15:18.055Z,14.61
2022-11-17T10:16:17.300Z,14.61
2022-11-17T10:17:17.281Z,14.63
2022-11-17T10:18:17.295Z,14.66
2022-11-17T10:19:17.272Z,14.67
2022-11-17T10:20:17.359Z,14.69
2022-11-17T10:21:17.290Z,14.69
2022-11-17T10:22:18.741Z,14.67
2022-11-17T10:23:17.228Z,14.64
2022-11-17T10:24:17.202Z,14.64
2022-11-17T10:25:17.223Z,14.72
2022-11-17T10:26:17.193Z,14.85
2022-11-17T10:27:17.173Z,14.97
2022-11-17T10:28:17.174Z,15.15
2022-11-17T10:29:17.153Z,15.23
2022-11-17T10:30:17.155Z,15.25
2022-11-17T10:31:17.878Z,15.19
2022-11-17T10:32:17.137Z,15.22
2022-11-17T10:33:17.852Z,15.23
2022-11-17T10:34:17.105Z,15.38
2022-11-17T10:35:18.596Z,15.44
2022-11-17T10:36:17.136Z,15.49
2022-11-17T10:37:17.796Z,15.55
2022-11-17T10:38:17.789Z,15.55
2022-11-17T10:39:17.878Z,15.60
2022-11-17T10:40:22.003Z,15.62
2022-11-17T10:41:18.076Z,15.59
2022-11-17T10:42:17.737Z,15.48
2022-11-17T10:43:17.044Z,15.35
2022-11-17T10:44:17.716Z,15.34
2022-11-17T10:45:17.022Z,15.18
2022-11-17T10:46:17.989Z,15.05
2022-11-17T10:47:17.006Z,15.00
2022-11-17T10:48:17.678Z,14.95
2022-11-17T10:49:16.958Z,14.97
2022-11-17T10:50:17.082Z,14.95
2022-11-17T10:51:16.930Z,14.93
2022-11-17T10:52:17.920Z,14.95
2022-11-17T10:53:16.980Z,14.95
2022-11-17T10:54:17.659Z,15.09
2022-11-17T10:55:16.890Z,15.16
2022-11-17T10:56:16.930Z,15.18
2022-11-17T10:57:16.891Z,15.25
2022-11-17T10:58:16.881Z,15.31
2022-11-17T10:59:16.822Z,15.35
2022-11-17T11:00:16.830Z,15.46
2022-11-17T11:01:18.204Z,15.51
2022-11-17T11:02:16.821Z,15.38
2022-11-17T11:03:16.781Z,15.30
2022-11-17T11:04:16.770Z,15.27
2022-11-17T11:05:16.773Z,15.18
2022-11-17T11:06:17.665Z,15.15
2022-11-17T11:07:16.912Z,15.19
2022-11-17T11:08:16.733Z,15.23
2022-11-17T11:09:16.730Z,15.25
2022-11-17T11:10:16.731Z,15.37
2022-11-17T11:11:16.703Z,15.49
2022-11-17T11:12:16.713Z,15.46
2022-11-17T11:13:16.695Z,15.43
2022-11-17T11:14:16.675Z,15.55
2022-11-17T11:15:16.655Z,15.60
2022-11-17T11:16:16.654Z,15.67
2022-11-17T11:17:16.646Z,15.76
2022-11-17T11:18:16.662Z,15.64
2022-11-17T11:19:16.646Z,15.55
2022-11-17T11:20:16.625Z,15.49
2022-11-17T11:21:16.617Z,15.44
2022-11-17T11:22:20.997Z,15.49
2022-11-17T11:23:16.579Z,15.56
2022-11-17T11:24:16.566Z,15.66
2022-11-17T11:25:16.567Z,15.77
2022-11-17T11:26:16.537Z,15.78
2022-11-17T11:27:16.527Z,15.78
2022-11-17T11:28:16.516Z,15.86
2022-11-17T11:29:16.498Z,15.74
2022-11-17T11:30:16.507Z,15.70
2022-11-17T11:31:16.478Z,15.80
2022-11-17T11:32:16.493Z,15.86
2022-11-17T11:33:16.478Z,16.32
2022-11-17T11:34:16.458Z,16.69
2022-11-17T11:35:17.584Z,18.25
2022-11-17T11:36:16.458Z,19.70
2022-11-17T11:37:16.448Z,20.75
2022-11-17T11:38:16.418Z,21.70
2022-11-17T11:39:16.399Z,22.39
2022-11-17T11:40:16.425Z,23.21
2022-11-17T11:41:16.407Z,24.41
2022-11-17T11:42:16.421Z,25.44
2022-11-17T11:43:16.366Z,25.57
2022-11-17T11:44:16.349Z,25.02
2022-11-17T11:45:16.330Z,24.90
2022-11-17T11:46:16.314Z,25.66
2022-11-17T11:47:16.352Z,25.86
2022-11-17T11:48:16.312Z,26.21
2022-11-17T11:49:16.314Z,26.84
2022-11-17T11:50:16.293Z,28.35
2022-11-17T11:51:16.280Z,29.30
2022-11-17T11:52:16.290Z,29.99
2022-11-17T11:53:16.254Z,30.48
2022-11-17T11:54:16.247Z,31.34
2022-11-17T11:55:16.234Z,31.75
2022-11-17T11:56:16.214Z,32.63
2022-11-17T11:57:16.225Z,32.47
2022-11-17T11:58:16.192Z,31.64
2022-11-17T11:59:16.194Z,31.47
2022-11-17T12:00:16.166Z,32.07
2022-11-17T12:01:16.170Z,32.21
2022-11-17T12:02:16.168Z,32.59
2022-11-17T12:03:16.226Z,33.17
2022-11-17T12:04:16.150Z,34.11
2022-11-17T12:05:16.157Z,34.24
2022-11-17T12:06:16.106Z,33.92
2022-11-17T12:07:16.162Z,33.79
2022-11-17T12:08:16.089Z,33.00
2022-11-17T12:09:16.094Z,33.77
2022-11-17T12:10:16.080Z,33.09
2022-11-17T12:11:16.061Z,32.49
2022-11-17T12:12:16.060Z,31.19
2022-11-17T12:13:16.027Z,31.05
2022-11-17T12:14:16.021Z,31.18
2022-11-17T12:15:16.033Z,31.52
2022-11-17T12:16:16.013Z,31.31
2022-11-17T12:17:15.983Z,31.62
2022-11-17T12:18:15.995Z,31.60
2022-11-17T12:19:15.963Z,31.31
2022-11-17T12:20:16.085Z,31.94
2022-11-17T12:21:15.946Z,32.09
2022-11-17T12:22:15.946Z,31.78
2022-11-17T12:23:15.954Z,32.19
2022-11-17T12:24:15.923Z,32.35
2022-11-17T12:25:15.900Z,33.24
2022-11-17T12:26:15.919Z,33.68
2022-11-17T12:27:15.879Z,32.27
2022-11-17T12:28:15.890Z,31.87
2022-11-17T12:29:15.856Z,32.62
2022-11-17T12:30:15.869Z,32.47
2022-11-17T12:31:15.830Z,32.83
2022-11-17T12:32:15.861Z,33.15
2022-11-17T12:33:15.831Z,33.09
2022-11-17T12:34:15.810Z,33.20
2022-11-17T12:35:15.862Z,33.38
2022-11-17T12:36:15.801Z,33.28
2022-11-17T12:37:15.831Z,33.47
2022-11-17T12:38:15.773Z,33.82
2022-11-17T12:39:16.765Z,34.11
2022-11-17T12:40:15.765Z,33.56
2022-11-17T12:41:16.471Z,33.21
2022-11-17T12:42:15.753Z,31.28
2022-11-17T12:43:16.849Z,30.76
2022-11-17T12:44:15.757Z,31.40
2022-11-17T12:45:16.436Z,31.56
2022-11-17T12:46:15.707Z,31.85
2022-11-17T12:47:17.196Z,32.02
2022-11-17T12:48:32.826Z,31.05
2022-11-17T12:49:17.731Z,31.20
2022-11-17T12:50:15.669Z,31.10
2022-11-17T12:51:16.320Z,31.91
2022-11-17T12:52:15.629Z,32.05
2022-11-17T12:53:16.370Z,32.53
2022-11-17T12:54:15.875Z,33.29
2022-11-17T12:55:15.880Z,32.76
2022-11-17T12:56:15.588Z,32.36
2022-11-17T12:57:15.687Z,32.13